Time;durP1;ratioP1;P1;durP2;ratioP2;P2;SDS_P1;SDS_P2;PMS_P1;PMS_P2;Temp;Humidity;BMP_temperature;BMP_pressure;BME280_temperature;BME280_humidity;BME280_pressure;Samples;Min_cycle;Max_cycle;Signal;HPM_P1;HPM_P2
2022/05/28 00:01:36;;;;;;;1159.30;660.30;;;10.90;72.40;;;;;;5020263;28;20045;-70
2022/05/28 00:04:04;;;;;;;1030.10;577.45;;;10.90;72.70;;;;;;5005990;28;20128;-70
2022/05/28 00:06:33;;;;;;;1051.03;603.00;;;10.90;73.00;;;;;;5013950;28;20084;-70
2022/05/28 00:09:00;;;;;;;1055.32;594.17;;;10.90;72.90;;;;;;5005949;28;20453;-70
2022/05/28 00:11:35;;;;;;;1160.40;647.60;;;10.90;73.20;;;;;;5023058;28;20451;-70
2022/05/28 00:14:01;;;;;;;1122.10;633.85;;;10.80;73.40;;;;;;5007938;28;20042;-70
2022/05/28 00:16:27;;;;;;;1096.25;644.97;;;10.80;73.70;;;;;;5023080;28;20088;-70
2022/05/28 00:18:53;;;;;;;1133.33;641.47;;;10.70;74.00;;;;;;5025416;28;20074;-70
2022/05/28 00:21:20;;;;;;;1071.20;588.07;;;10.60;74.00;;;;;;5023922;28;20594;-70
2022/05/28 00:23:46;;;;;;;1024.07;592.47;;;10.60;74.10;;;;;;5027787;28;20492;-70
2022/05/28 00:26:13;;;;;;;1051.88;599.50;;;10.60;74.50;;;;;;5038806;28;20037;-70
2022/05/28 00:28:39;;;;;;;1082.93;587.50;;;10.60;74.00;;;;;;5025848;28;20045;-70
2022/05/28 00:31:05;;;;;;;1125.17;725.30;;;10.50;73.60;;;;;;4989697;28;20087;-69
2022/05/28 00:33:31;;;;;;;1205.57;726.28;;;10.50;73.20;;;;;;5027944;28;20045;-69
2022/05/28 00:35:57;;;;;;;1162.57;690.63;;;10.50;72.90;;;;;;5025383;28;20037;-70
2022/05/28 00:38:24;;;;;;;1131.45;666.67;;;10.40;72.70;;;;;;5026376;28;20069;-70
2022/05/28 00:40:53;;;;;;;1132.05;692.88;;;10.30;72.30;;;;;;5011131;28;20400;-70
2022/05/28 00:43:20;;;;;;;1108.10;704.70;;;10.30;71.60;;;;;;5021179;28;20042;-70
2022/05/28 00:45:48;;;;;;;1151.28;749.25;;;10.20;71.50;;;;;;4998829;28;20520;-70
2022/05/28 00:48:20;;;;;;;1152.35;681.50;;;10.10;71.30;;;;;;5027534;28;20529;-70
2022/05/28 00:50:46;;;;;;;1075.38;710.55;;;10.10;71.50;;;;;;5026790;28;20056;-70
2022/05/28 00:53:12;;;;;;;1103.63;687.27;;;10.00;71.50;;;;;;5010531;28;20037;-69
2022/05/28 00:55:38;;;;;;;1150.37;734.37;;;9.90;71.50;;;;;;5002623;28;20548;-69
2022/05/28 00:58:07;;;;;;;1195.13;737.57;;;9.90;71.70;;;;;;4994306;28;20348;-69
2022/05/28 01:00:34;;;;;;;1115.25;650.05;;;9.90;71.90;;;;;;4998791;28;20041;-69
2022/05/28 01:03:17;;;;;;;1237.15;704.42;;;9.90;71.80;;;;;;5011028;28;20585;-69
2022/05/28 01:05:52;;;;;;;1205.78;818.47;;;9.80;72.40;;;;;;5031907;28;20636;-69
2022/05/28 01:08:38;;;;;;;1241.57;808.75;;;9.70;72.50;;;;;;5026308;28;20049;-69
2022/05/28 01:11:37;;;;;;;1031.63;628.92;;;9.60;73.00;;;;;;5023996;28;20045;-69
2022/05/28 01:14:16;;;;;;;1271.38;808.95;;;9.60;73.70;;;;;;5025742;28;20167;-69
2022/05/28 01:16:55;;;;;;;1127.28;749.95;;;9.50;73.40;;;;;;5025975;28;20454;-69
2022/05/28 01:19:49;;;;;;;1256.38;849.30;;;9.50;73.40;;;;;;5015479;28;20033;-70
2022/05/28 01:22:53;;;;;;;1150.18;766.65;;;9.40;73.40;;;;;;5025682;28;20047;-70
2022/05/28 01:25:47;;;;;;;1081.18;734.47;;;9.40;73.40;;;;;;5006520;28;20053;-70
2022/05/28 01:28:16;;;;;;;1182.93;750.28;;;9.40;73.10;;;;;;5026401;28;20080;-70
2022/05/28 01:30:45;;;;;;;1300.30;845.47;;;9.40;73.20;;;;;;5020294;28;20052;-70
2022/05/28 01:33:14;;;;;;;1193.50;737.33;;;9.40;72.90;;;;;;5003831;28;20080;-70
2022/05/28 01:35:41;;;;;;;1209.47;778.40;;;9.50;72.50;;;;;;5021356;28;20036;-70
2022/05/28 01:38:09;;;;;;;1293.63;815.58;;;9.50;72.20;;;;;;5025628;28;20037;-69
2022/05/28 01:40:36;;;;;;;1217.65;764.67;;;9.40;71.90;;;;;;5026672;28;20421;-69
2022/05/28 01:43:05;;;;;;;1256.97;835.80;;;9.40;71.40;;;;;;5026106;28;20048;-69
2022/05/28 01:45:32;;;;;;;1154.93;760.15;;;9.40;71.30;;;;;;5009291;28;20045;-69
2022/05/28 01:48:01;;;;;;;1205.82;786.92;;;9.40;71.40;;;;;;5043036;28;20098;-69
2022/05/28 01:50:30;;;;;;;1224.82;831.85;;;9.30;71.50;;;;;;5016944;28;20049;-69
2022/05/28 01:52:59;;;;;;;1152.18;735.63;;;9.30;71.70;;;;;;5024481;28;20049;-69
2022/05/28 01:55:26;;;;;;;1326.68;849.63;;;9.30;72.00;;;;;;5025888;28;20152;-69
2022/05/28 01:57:52;;;;;;;1286.85;837.58;;;9.30;71.90;;;;;;5026354;28;20127;-69
2022/05/28 02:00:18;;;;;;;1236.03;832.47;;;9.30;72.00;;;;;;5025241;28;20080;-70
2022/05/28 02:02:44;;;;;;;1044.93;693.30;;;9.30;72.00;;;;;;5024347;28;20038;-70
2022/05/28 02:05:10;;;;;;;1093.37;660.63;;;9.20;72.40;;;;;;5025805;28;20038;-70
2022/05/28 02:07:36;;;;;;;1241.68;784.42;;;9.20;72.70;;;;;;5026619;28;20528;-70
2022/05/28 02:10:09;;;;;;;1161.53;726.20;;;9.20;72.90;;;;;;5009282;28;20053;-70
2022/05/28 02:12:49;;;;;;;1311.18;863.15;;;9.10;73.00;;;;;;5019689;28;20084;-70
2022/05/28 02:15:24;;;;;;;1256.35;792.45;;;9.10;73.10;;;;;;5043211;28;20183;-70
2022/05/28 02:18:23;;;;;;;1271.17;769.40;;;9.10;73.00;;;;;;5024452;28;20045;-70
2022/05/28 02:21:03;;;;;;;1297.00;810.42;;;9.00;73.40;;;;;;5019338;28;20776;-70
2022/05/28 02:23:38;;;;;;;1273.90;801.40;;;9.10;73.70;;;;;;5018222;28;20068;-69
2022/05/28 02:26:12;;;;;;;1200.82;780.17;;;9.10;73.70;;;;;;5024255;28;20128;-69
2022/05/28 02:28:40;;;;;;;1179.78;734.08;;;9.10;73.80;;;;;;5026097;28;20049;-69
2022/05/28 02:31:18;;;;;;;1326.95;791.70;;;9.20;74.20;;;;;;5006866;28;20628;-69
2022/05/28 02:33:45;;;;;;;1303.15;808.83;;;9.20;74.00;;;;;;5025415;28;20049;-69
2022/05/28 02:36:15;;;;;;;1376.47;835.40;;;9.30;73.90;;;;;;5020254;28;20038;-69
2022/05/28 02:38:41;;;;;;;1249.50;788.38;;;9.30;73.90;;;;;;5025238;28;20069;-69
2022/05/28 02:41:08;;;;;;;1229.82;730.28;;;9.30;73.60;;;;;;5041137;28;20498;-69
2022/05/28 02:43:34;;;;;;;1239.40;774.70;;;9.30;73.60;;;;;;5002535;28;20490;-69
2022/05/28 02:46:04;;;;;;;1184.45;780.63;;;9.30;73.30;;;;;;5024931;28;20147;-69
2022/05/28 02:48:31;;;;;;;1254.85;802.95;;;9.40;73.20;;;;;;5025179;28;20046;-69
2022/05/28 02:51:09;;;;;;;1077.30;682.85;;;9.40;73.00;;;;;;5024241;28;20045;-69
2022/05/28 02:53:35;;;;;;;1197.43;785.58;;;9.40;73.30;;;;;;5021713;28;20068;-69
2022/05/28 02:56:01;;;;;;;1247.07;774.97;;;9.40;73.40;;;;;;5008257;28;20041;-69
2022/05/28 02:58:27;;;;;;;1234.50;820.40;;;9.30;73.30;;;;;;5020795;28;20049;-69
2022/05/28 03:00:53;;;;;;;1189.37;713.63;;;9.30;73.20;;;;;;5007592;28;20090;-69
2022/05/28 03:03:19;;;;;;;1282.53;828.43;;;9.30;73.30;;;;;;5017902;28;20042;-69
2022/05/28 03:05:51;;;;;;;1263.75;794.28;;;9.30;73.40;;;;;;5035717;28;20489;-69
2022/05/28 03:08:17;;;;;;;1282.35;824.50;;;9.20;73.40;;;;;;5018829;28;20124;-69
2022/05/28 03:10:43;;;;;;;1208.50;789.55;;;9.20;73.50;;;;;;5024533;28;20100;-69
2022/05/28 03:13:10;;;;;;;1268.88;834.78;;;9.20;73.70;;;;;;4997850;28;20439;-69
2022/05/28 03:15:35;;;;;;;1238.05;791.10;;;9.20;73.50;;;;;;5020488;28;20034;-69
2022/05/28 03:18:01;;;;;;;1161.40;755.57;;;9.20;73.70;;;;;;5000515;28;20037;-69
2022/05/28 03:20:28;;;;;;;1212.53;763.37;;;9.10;73.80;;;;;;5018308;28;20076;-69
2022/05/28 03:22:53;;;;;;;1187.60;768.35;;;9.10;73.70;;;;;;5023859;28;20501;-69
2022/05/28 03:25:20;;;;;;;1196.87;783.30;;;9.10;73.80;;;;;;5020956;28;20037;-69
2022/05/28 03:27:45;;;;;;;1168.47;751.88;;;9.10;74.10;;;;;;5023789;28;20492;-69
2022/05/28 03:30:11;;;;;;;1238.20;804.80;;;9.10;74.30;;;;;;5001171;28;20392;-69
2022/05/28 03:32:37;;;;;;;1140.60;767.78;;;9.10;74.40;;;;;;5016189;28;20042;-69
2022/05/28 03:35:03;;;;;;;1231.67;742.17;;;9.10;74.30;;;;;;5025055;28;20048;-69
2022/05/28 03:37:29;;;;;;;1169.10;745.83;;;9.20;74.50;;;;;;5013532;28;20038;-69
2022/05/28 03:39:55;;;;;;;1286.67;770.07;;;9.30;74.50;;;;;;4997727;28;20042;-69
2022/05/28 03:42:20;;;;;;;1149.53;758.80;;;9.30;74.50;;;;;;5016163;28;20037;-69
2022/05/28 03:44:46;;;;;;;1209.40;752.33;;;9.40;74.20;;;;;;5008059;28;20048;-69
2022/05/28 03:47:12;;;;;;;1186.47;800.80;;;9.40;74.20;;;;;;5021257;28;20054;-69
2022/05/28 03:49:41;;;;;;;1134.35;699.85;;;9.50;74.00;;;;;;5022003;28;20124;-69
2022/05/28 03:52:07;;;;;;;1223.63;781.50;;;9.60;73.80;;;;;;5011470;28;20062;-69
2022/05/28 03:54:34;;;;;;;1271.13;796.42;;;9.60;73.60;;;;;;5028000;28;20044;-69
2022/05/28 03:57:08;;;;;;;1218.18;778.50;;;9.70;73.10;;;;;;5028785;28;20048;-70
2022/05/28 03:59:34;;;;;;;1074.32;741.60;;;9.80;72.90;;;;;;5026603;28;20041;-70
2022/05/28 04:02:00;;;;;;;1132.18;750.00;;;9.80;72.60;;;;;;5026325;28;20131;-70
2022/05/28 04:04:26;;;;;;;1219.15;789.28;;;9.90;72.60;;;;;;5008960;28;20128;-70
2022/05/28 04:06:52;;;;;;;1194.97;715.07;;;9.90;72.50;;;;;;5028706;28;20124;-70
2022/05/28 04:09:18;;;;;;;1142.07;741.27;;;10.00;72.40;;;;;;5025920;28;20048;-70
2022/05/28 04:11:44;;;;;;;1139.43;719.55;;;10.00;72.30;;;;;;5004320;28;20312;-70
2022/05/28 04:14:10;;;;;;;1194.07;783.53;;;10.10;72.10;;;;;;5016409;28;20048;-70
2022/05/28 04:16:37;;;;;;;1175.70;708.63;;;10.10;71.80;;;;;;5024998;28;20041;-70
2022/05/28 04:19:03;;;;;;;1140.03;747.70;;;10.10;71.60;;;;;;5023167;28;20042;-70
2022/05/28 04:21:29;;;;;;;1083.22;695.58;;;10.10;71.40;;;;;;5022952;28;20056;-70
2022/05/28 04:23:54;;;;;;;1145.33;727.43;;;10.10;71.20;;;;;;5010425;28;20049;-70
2022/05/28 04:26:20;;;;;;;1187.13;716.50;;;10.20;71.20;;;;;;5024085;28;20078;-70
2022/05/28 04:28:46;;;;;;;1241.67;813.77;;;10.10;71.20;;;;;;5011001;28;20037;-69
2022/05/28 04:31:11;;;;;;;1089.17;721.43;;;10.10;71.10;;;;;;5025528;28;20532;-69
2022/05/28 04:33:37;;;;;;;1044.03;701.77;;;10.10;71.30;;;;;;5028088;28;20497;-69
2022/05/28 04:36:03;;;;;;;1126.60;712.13;;;10.10;71.00;;;;;;5039468;28;20465;-69
2022/05/28 04:38:29;;;;;;;1150.07;778.67;;;10.10;71.20;;;;;;5007991;28;20146;-69
2022/05/28 04:40:55;;;;;;;1131.97;713.97;;;10.30;70.60;;;;;;5020242;28;20103;-69
2022/05/28 04:43:20;;;;;;;1141.10;737.70;;;10.30;70.40;;;;;;5025015;28;20045;-69
2022/05/28 04:45:46;;;;;;;1125.40;746.90;;;10.30;70.00;;;;;;5027660;28;20425;-69
2022/05/28 04:48:12;;;;;;;1098.33;713.30;;;10.30;69.90;;;;;;5022110;28;20040;-69
2022/05/28 04:50:38;;;;;;;1116.63;740.08;;;10.30;70.10;;;;;;5024422;28;20049;-70
2022/05/28 04:53:04;;;;;;;1162.83;690.30;;;10.20;70.10;;;;;;4994572;28;20049;-70
2022/05/28 04:55:30;;;;;;;1232.03;763.63;;;10.10;70.30;;;;;;5022051;28;20037;-70
2022/05/28 04:57:55;;;;;;;1082.70;680.63;;;10.20;70.50;;;;;;5006328;28;20111;-70
2022/05/28 05:00:23;;;;;;;1124.87;694.97;;;10.40;70.00;;;;;;5026769;28;20092;-70
2022/05/28 05:02:49;;;;;;;1131.97;720.72;;;10.50;69.70;;;;;;5027087;28;20037;-70
2022/05/28 05:05:15;;;;;;;1088.13;739.13;;;10.50;69.90;;;;;;5009503;28;20053;-70
2022/05/28 05:07:40;;;;;;;1171.00;720.00;;;10.50;69.70;;;;;;5010117;28;20041;-70
2022/05/28 05:10:07;;;;;;;1058.83;611.07;;;10.50;69.70;;;;;;5028206;28;20095;-70
2022/05/28 05:12:33;;;;;;;1128.88;680.90;;;10.50;69.70;;;;;;5003935;28;20056;-70
2022/05/28 05:14:59;;;;;;;1257.30;745.40;;;10.60;69.60;;;;;;5026405;28;20037;-70
2022/05/28 05:17:25;;;;;;;1161.77;705.90;;;10.60;69.60;;;;;;5024110;28;20568;-70
2022/05/28 05:19:52;;;;;;;1135.68;708.83;;;10.70;69.70;;;;;;5016420;28;20040;-70
2022/05/28 05:22:18;;;;;;;1101.22;656.83;;;10.80;69.40;;;;;;5010508;28;20037;-70
2022/05/28 05:24:44;;;;;;;1145.07;695.60;;;10.90;69.10;;;;;;5024572;28;20033;-70
2022/05/28 05:27:11;;;;;;;1108.38;684.20;;;11.10;69.10;;;;;;4991638;28;20045;-70
2022/05/28 05:29:38;;;;;;;1087.13;628.95;;;11.30;68.30;;;;;;5037645;28;20070;-70
2022/05/28 05:32:06;;;;;;;1069.97;649.90;;;11.50;67.80;;;;;;5024732;28;20051;-70
2022/05/28 05:34:32;;;;;;;1205.47;737.30;;;12.00;67.20;;;;;;5026241;28;20041;-70
2022/05/28 05:36:58;;;;;;;1142.37;676.87;;;12.60;64.90;;;;;;5026219;28;20466;-70
2022/05/28 05:39:24;;;;;;;1066.53;660.77;;;12.90;63.70;;;;;;5023549;28;20405;-71
2022/05/28 05:41:50;;;;;;;1148.30;674.83;;;13.40;63.40;;;;;;5026142;28;20049;-71
2022/05/28 05:44:16;;;;;;;1086.53;624.83;;;13.90;61.60;;;;;;5022600;28;20045;-71
2022/05/28 05:46:43;;;;;;;1136.77;664.63;;;14.40;59.70;;;;;;5004286;28;20091;-72
2022/05/28 05:49:10;;;;;;;1176.77;629.60;;;14.80;58.80;;;;;;5022140;28;20288;-71
2022/05/28 05:51:41;;;;;;;1212.03;647.63;;;14.90;57.40;;;;;;5023972;28;20300;-71
2022/05/28 05:54:07;;;;;;;1189.57;660.30;;;14.60;58.10;;;;;;5025886;28;20768;-71
2022/05/28 05:56:32;;;;;;;1142.77;635.37;;;13.90;59.40;;;;;;5022973;28;20303;-71
2022/05/28 05:58:58;;;;;;;1151.03;667.77;;;13.40;60.70;;;;;;5008881;28;20041;-71
2022/05/28 06:01:25;;;;;;;1074.77;574.13;;;13.10;61.90;;;;;;5005888;28;20045;-71
2022/05/28 06:03:51;;;;;;;1136.87;603.43;;;12.80;62.90;;;;;;5025703;28;20371;-71
2022/05/28 06:06:17;;;;;;;1145.00;611.77;;;12.60;63.50;;;;;;5007782;28;20291;-71
2022/05/28 06:08:44;;;;;;;1193.53;627.23;;;12.40;64.40;;;;;;5009909;28;20043;-71
2022/05/28 06:11:09;;;;;;;1150.23;646.00;;;12.30;64.90;;;;;;5003520;28;20315;-71
2022/05/28 06:13:36;;;;;;;1111.17;635.47;;;12.30;64.90;;;;;;5013529;28;20413;-71
2022/05/28 06:16:02;;;;;;;1219.63;700.75;;;12.30;64.70;;;;;;5022266;28;20549;-71
2022/05/28 06:18:29;;;;;;;1165.35;627.10;;;12.40;64.80;;;;;;5021309;28;20047;-69
2022/05/28 06:20:55;;;;;;;1172.87;642.47;;;12.80;64.60;;;;;;5019454;28;20052;-69
2022/05/28 06:23:21;;;;;;;1081.80;592.67;;;13.00;62.90;;;;;;5024014;28;20299;-69
2022/05/28 06:25:46;;;;;;;1129.67;613.73;;;12.70;62.60;;;;;;5024987;28;20747;-69
2022/05/28 06:28:13;;;;;;;1179.00;651.07;;;13.10;63.00;;;;;;5025515;28;20449;-69
2022/05/28 06:30:40;;;;;;;1129.67;662.10;;;13.30;61.00;;;;;;5008496;28;20049;-69
2022/05/28 06:33:06;;;;;;;1147.13;660.63;;;13.10;61.30;;;;;;5007514;28;20309;-69
2022/05/28 06:35:32;;;;;;;1157.43;670.07;;;12.80;62.20;;;;;;5025364;28;20296;-69
2022/05/28 06:37:58;;;;;;;1159.97;658.00;;;12.60;62.60;;;;;;5009318;28;20284;-69
2022/05/28 06:40:25;;;;;;;1279.30;716.37;;;12.40;62.90;;;;;;5024774;28;20367;-69
2022/05/28 06:42:51;;;;;;;1212.80;700.47;;;12.90;63.00;;;;;;4997904;28;20291;-71
2022/05/28 06:45:18;;;;;;;1199.93;673.27;;;13.40;61.50;;;;;;5019784;28;20290;-71
2022/05/28 06:47:45;;;;;;;1321.67;711.53;;;13.40;61.10;;;;;;5022131;28;20636;-71
2022/05/28 06:52:58;;;;;;;1171.67;646.47;;;14.10;58.70;;;;;;5024690;28;20362;-71
2022/05/28 06:55:24;;;;;;;1270.10;701.60;;;14.00;58.50;;;;;;5008321;28;20288;-71
2022/05/28 06:57:50;;;;;;;1353.57;627.37;;;13.90;58.70;;;;;;5009116;28;20048;-71
2022/05/28 07:00:17;;;;;;;1226.87;656.70;;;13.80;58.50;;;;;;5007341;28;20037;-71
2022/05/28 07:02:43;;;;;;;1213.30;666.23;;;14.00;58.70;;;;;;5024751;28;20319;-71
2022/05/28 07:05:12;;;;;;;1170.17;622.70;;;14.30;59.30;;;;;;5021837;28;20300;-71
2022/05/28 07:07:38;;;;;;;1333.57;706.70;;;14.60;58.60;;;;;;5025688;28;20379;-70
2022/05/28 07:10:04;;;;;;;1257.17;675.17;;;14.60;57.70;;;;;;5017723;28;20871;-69
2022/05/28 07:12:30;;;;;;;1242.80;624.60;;;14.60;58.00;;;;;;5008625;28;20477;-69
2022/05/28 07:14:56;;;;;;;1300.93;681.93;;;14.60;58.40;;;;;;5005363;28;20288;-69
2022/05/28 07:17:22;;;;;;;1296.33;696.37;;;14.50;58.60;;;;;;5005451;28;20044;-69
2022/05/28 07:19:49;;;;;;;1268.17;714.60;;;14.30;58.10;;;;;;5003646;28;20034;-69
2022/05/28 07:22:15;;;;;;;1335.27;680.83;;;14.20;58.60;;;;;;4998341;28;20299;-69
2022/05/28 07:24:41;;;;;;;1295.43;654.93;;;14.30;58.90;;;;;;5026751;28;20295;-70
2022/05/28 07:27:06;;;;;;;1325.83;659.07;;;14.50;58.90;;;;;;5024230;28;20100;-69
2022/05/28 07:29:32;;;;;;;1328.17;679.47;;;14.40;58.10;;;;;;5027838;28;20283;-69
2022/05/28 07:31:58;;;;;;;1315.90;617.40;;;14.20;57.90;;;;;;5012380;28;20060;-69
2022/05/28 07:34:23;;;;;;;1177.03;641.80;;;14.00;58.90;;;;;;5011838;28;20359;-69
2022/05/28 07:36:49;;;;;;;1327.70;679.27;;;14.10;58.10;;;;;;5026699;28;20045;-69
2022/05/28 07:39:16;;;;;;;1300.67;682.27;;;14.10;57.60;;;;;;5025682;28;20501;-69
2022/05/28 07:41:43;;;;;;;1193.03;646.60;;;14.10;58.00;;;;;;5012510;28;20030;-69
2022/05/28 07:44:09;;;;;;;1333.93;701.10;;;14.20;58.80;;;;;;5028231;28;20296;-69
2022/05/28 07:46:35;;;;;;;1252.00;639.37;;;14.40;58.40;;;;;;5010137;28;20287;-69
2022/05/28 07:49:02;;;;;;;1380.77;692.73;;;14.50;57.90;;;;;;5007855;28;20330;-69
2022/05/28 07:51:28;;;;;;;1308.80;700.70;;;14.40;57.80;;;;;;5026020;28;20308;-69
2022/05/28 07:53:54;;;;;;;1278.90;675.37;;;14.20;57.60;;;;;;5027866;28;20723;-69
2022/05/28 07:56:20;;;;;;;1375.27;714.47;;;14.10;58.00;;;;;;5011964;28;20037;-69
2022/05/28 07:58:47;;;;;;;1348.70;711.87;;;14.00;59.00;;;;;;5027852;28;20788;-69
2022/05/28 08:01:24;;;;;;;1296.17;685.20;;;14.10;58.50;;;;;;5008620;28;20041;-69
2022/05/28 08:03:50;;;;;;;1270.47;701.27;;;14.00;57.60;;;;;;5028511;28;20637;-69
2022/05/28 08:06:17;;;;;;;1271.43;687.37;;;13.90;58.80;;;;;;5028649;28;20768;-70
2022/05/28 08:08:43;;;;;;;1185.27;599.17;;;13.90;59.20;;;;;;5013615;28;20640;-70
2022/05/28 08:11:09;;;;;;;1383.00;730.67;;;14.20;59.00;;;;;;5011804;28;20363;-70
2022/05/28 08:13:36;;;;;;;1321.23;661.57;;;14.40;57.40;;;;;;5009849;28;20791;-70
2022/05/28 08:16:02;;;;;;;1256.13;692.30;;;14.40;56.80;;;;;;5027847;28;20546;-70
2022/05/28 08:18:28;;;;;;;1405.83;616.10;;;14.30;57.30;;;;;;5022246;28;20304;-70
2022/05/28 08:23:41;;;;;;;1379.53;666.77;;;14.20;58.10;;;;;;5027950;28;20284;-71
2022/05/28 08:26:09;;;;;;;1355.63;662.43;;;14.30;57.60;;;;;;5028581;28;20669;-71
2022/05/28 08:28:36;;;;;;;1439.00;715.30;;;14.30;56.90;;;;;;5025577;28;20353;-71
2022/05/28 08:31:02;;;;;;;1506.00;765.73;;;14.40;56.50;;;;;;5006577;28;20945;-71
2022/05/28 08:33:28;;;;;;;1337.53;683.23;;;14.60;56.50;;;;;;5027233;28;20304;-71
2022/05/28 08:35:55;;;;;;;1324.97;670.03;;;14.80;57.00;;;;;;5025970;28;20284;-71
2022/05/28 08:38:22;;;;;;;1335.67;669.67;;;15.00;56.00;;;;;;5026548;28;20100;-71
2022/05/28 08:41:10;;;;;;;1383.47;655.67;;;14.90;56.20;;;;;;5027862;28;20288;-71
2022/05/28 08:43:42;;;;;;;1488.90;740.97;;;14.50;55.70;;;;;;5004866;28;20350;-71
2022/05/28 08:46:12;;;;;;;1431.57;697.67;;;14.50;57.40;;;;;;5007688;28;20635;-71
2022/05/28 08:48:52;;;;;;;1295.63;618.77;;;14.80;57.40;;;;;;5007889;28;20379;-71
2022/05/28 08:51:46;;;;;;;1424.30;705.73;;;15.00;57.20;;;;;;5010097;28;20284;-71
2022/05/28 08:54:29;;;;;;;1369.47;697.70;;;15.00;57.30;;;;;;5026519;28;20300;-71
2022/05/28 08:57:01;;;;;;;1480.90;809.30;;;14.90;57.30;;;;;;5026413;28;20268;-71
2022/05/28 08:59:59;;;;;;;1423.63;756.20;;;14.90;56.60;;;;;;5024638;28;20265;-71
2022/05/28 09:02:46;;;;;;;1522.07;774.97;;;15.10;55.20;;;;;;5024816;28;20644;-71
2022/05/28 09:05:27;;;;;;;1488.57;833.50;;;15.20;54.90;;;;;;5027657;28;20391;-71
2022/05/28 09:07:58;;;;;;;1641.80;788.33;;;15.00;54.00;;;;;;5024558;28;20279;-71
2022/05/28 09:10:24;;;;;;;1592.30;785.03;;;14.90;54.70;;;;;;5025072;28;20834;-71
2022/05/28 09:13:05;;;;;;;1437.97;666.07;;;15.10;55.30;;;;;;5005887;28;20336;-71
2022/05/28 09:15:33;;;;;;;1424.33;741.77;;;15.20;55.70;;;;;;5021290;28;21257;-71
2022/05/28 09:17:59;;;;;;;1431.57;726.10;;;14.90;55.40;;;;;;5025313;28;20296;-71
2022/05/28 09:20:35;;;;;;;1471.13;678.90;;;14.80;56.10;;;;;;5005600;28;20744;-71
2022/05/28 09:23:00;;;;;;;1525.67;776.37;;;15.10;55.60;;;;;;5025826;28;20371;-71
2022/05/28 09:25:31;;;;;;;1522.77;714.13;;;15.30;55.00;;;;;;4998243;28;20648;-71
2022/05/28 09:28:29;;;;;;;1389.30;697.90;;;15.40;54.70;;;;;;5025815;28;20041;-71
2022/05/28 09:31:34;;;;;;;1464.00;738.00;;;15.40;55.90;;;;;;5013613;28;20288;-71
2022/05/28 09:34:09;;;;;;;1362.27;667.93;;;15.30;55.20;;;;;;4993330;28;20644;-71
2022/05/28 09:37:01;;;;;;;1533.88;805.08;;;15.20;56.10;;;;;;5025224;28;20276;-71
2022/05/28 09:39:46;;;;;;;1496.47;796.63;;;15.10;54.70;;;;;;5008540;28;20223;-71
2022/05/28 09:42:24;;;;;;;1567.28;766.63;;;15.00;55.80;;;;;;5024917;28;20375;-71
2022/05/28 09:44:55;;;;;;;1618.33;817.37;;;15.30;55.60;;;;;;5009399;28;20366;-71
2022/05/28 09:47:21;;;;;;;1575.23;815.33;;;15.40;53.70;;;;;;5025147;28;20367;-71
2022/05/28 09:49:48;;;;;;;1614.40;806.60;;;15.30;54.60;;;;;;5024770;28;20767;-71
2022/05/28 09:52:23;;;;;;;1412.40;760.33;;;15.50;55.60;;;;;;5021731;28;20405;-71
2022/05/28 09:54:49;;;;;;;1547.78;774.80;;;15.80;54.30;;;;;;5024837;28;20276;-71
2022/05/28 09:57:27;;;;;;;1543.10;804.97;;;16.00;53.70;;;;;;5009097;28;20095;-71
2022/05/28 10:00:06;;;;;;;1465.57;777.87;;;15.60;53.60;;;;;;5023699;28;20037;-71
2022/05/28 10:02:43;;;;;;;1539.93;730.50;;;15.40;54.30;;;;;;5022116;28;20291;-71
2022/05/28 10:05:20;;;;;;;1629.50;848.27;;;15.10;55.70;;;;;;5015594;28;20295;-71
2022/05/28 10:07:54;;;;;;;1443.80;781.87;;;14.90;55.70;;;;;;5027204;28;20798;-71
2022/05/28 10:10:28;;;;;;;1434.13;715.93;;;14.90;56.10;;;;;;5023997;28;20588;-71
2022/05/28 10:13:10;;;;;;;1553.80;778.17;;;15.00;56.10;;;;;;5025562;28;20303;-71
2022/05/28 10:15:56;;;;;;;1502.47;766.40;;;14.80;54.90;;;;;;5018232;28;20132;-71
2022/05/28 10:18:28;;;;;;;1479.73;783.63;;;14.80;55.80;;;;;;5021018;28;20302;-71
2022/05/28 10:21:25;;;;;;;1486.07;741.43;;;14.80;56.10;;;;;;5013782;28;20307;-71
2022/05/28 10:23:54;;;;;;;1631.07;769.97;;;14.80;55.40;;;;;;5003310;28;20296;-71
2022/05/28 10:26:33;;;;;;;1522.93;833.37;;;14.90;54.20;;;;;;5048597;28;20291;-71
2022/05/28 10:29:04;;;;;;;1611.57;818.73;;;15.10;53.80;;;;;;5031638;28;20312;-71
2022/05/28 10:31:34;;;;;;;1484.57;785.83;;;15.60;54.10;;;;;;5002795;28;20633;-72
2022/05/28 10:33:59;;;;;;;1499.23;776.20;;;15.90;54.10;;;;;;5018705;28;20363;-71
2022/05/28 10:36:31;;;;;;;1480.10;740.27;;;15.90;53.30;;;;;;5017779;28;20353;-71
2022/05/28 10:39:26;;;;;;;1540.23;805.90;;;15.60;52.70;;;;;;5019281;28;20132;-71
2022/05/28 10:41:53;;;;;;;1600.10;827.80;;;15.60;52.70;;;;;;5011407;28;21039;-71
2022/05/28 10:44:19;;;;;;;1543.20;781.63;;;15.60;53.00;;;;;;5002566;28;20395;-70
2022/05/28 10:46:45;;;;;;;1472.27;759.53;;;15.60;53.10;;;;;;5013059;28;20320;-70
2022/05/28 10:49:44;;;;;;;1468.73;763.33;;;15.40;52.30;;;;;;5030990;28;20860;-70
2022/05/28 10:52:49;;;;;;;1571.10;803.60;;;15.20;53.00;;;;;;5017594;28;20050;-70
2022/05/28 10:55:26;;;;;;;1520.97;807.40;;;15.10;55.40;;;;;;5047626;28;20607;-70
2022/05/28 10:58:07;;;;;;;1542.03;805.43;;;15.60;54.40;;;;;;5034354;28;20288;-70
2022/05/28 11:00:53;;;;;;;1582.97;803.17;;;15.80;53.90;;;;;;5028642;28;20368;-71
2022/05/28 11:03:38;;;;;;;1602.77;834.90;;;15.90;52.10;;;;;;5007943;28;20293;-71
2022/05/28 11:06:12;;;;;;;1586.53;854.10;;;16.20;53.00;;;;;;5039697;28;20316;-71
2022/05/28 11:09:03;;;;;;;1601.85;808.58;;;16.50;52.50;;;;;;5035734;28;20649;-71
2022/05/28 11:11:39;;;;;;;1604.40;839.97;;;16.60;51.00;;;;;;5013487;28;20117;-71
2022/05/28 11:14:25;;;;;;;1553.80;794.57;;;16.20;51.30;;;;;;5018278;28;20288;-71
2022/05/28 11:17:01;;;;;;;;;;;15.90;52.80;;;;;;5019942;28;20828;-71
2022/05/28 11:19:36;;;;;;;1569.57;845.63;;;15.90;51.80;;;;;;4999633;28;19924;-71
2022/05/28 11:22:07;;;;;;;1557.45;869.08;;;15.80;52.70;;;;;;5016712;28;20699;-71
2022/05/28 11:24:54;;;;;;;1629.83;811.73;;;15.80;52.30;;;;;;5012803;28;20057;-70
2022/05/28 11:27:41;;;;;;;1487.57;804.03;;;15.70;52.50;;;;;;5019781;28;20276;-70
2022/05/28 11:30:20;;;;;;;1439.47;725.77;;;15.50;52.60;;;;;;5013365;28;20284;-70
2022/05/28 11:33:03;;;;;;;1486.50;772.93;;;15.30;53.50;;;;;;5043182;28;20323;-70
2022/05/28 11:35:38;;;;;;;1392.37;763.60;;;15.10;55.10;;;;;;5031435;28;20346;-70
2022/05/28 11:38:10;;;;;;;;;;;15.10;55.50;;;;;;5016351;28;21199;-70
2022/05/28 11:41:07;;;;;;;1315.00;746.07;;;15.10;55.60;;;;;;5013931;28;19947;-70
2022/05/28 11:43:46;;;;;;;1410.17;749.37;;;14.90;56.70;;;;;;5033597;28;20354;-70
2022/05/28 11:46:21;;;;;;;1240.63;642.83;;;14.60;59.20;;;;;;5039570;28;20306;-70
2022/05/28 11:52:34;;;;;;;1490.00;791.13;;;14.40;58.70;;;;;;4967965;28;20092;-70
2022/05/28 11:55:11;;;;;;;1416.10;744.37;;;14.50;57.90;;;;;;5010757;28;20807;-70
2022/05/28 11:58:03;;;;;;;1400.57;755.93;;;14.70;57.60;;;;;;5021416;28;20284;-70
2022/05/28 12:00:39;;;;;;;1343.63;716.90;;;14.90;57.50;;;;;;5020965;28;20306;-70
2022/05/28 12:03:09;;;;;;;1335.43;672.67;;;15.00;56.60;;;;;;5023172;28;20311;-70
2022/05/28 12:05:41;;;;;;;1498.00;771.90;;;15.00;56.70;;;;;;5035865;28;21065;-70
2022/05/28 12:08:17;;;;;;;1357.70;727.40;;;14.70;55.90;;;;;;5024108;28;20311;-70
2022/05/28 12:10:51;;;;;;;1372.93;710.77;;;14.60;57.40;;;;;;5023174;28;20316;-70
2022/05/28 12:13:45;;;;;;;1360.13;697.67;;;14.80;57.90;;;;;;5027048;28;20345;-70
2022/05/28 12:16:31;;;;;;;1212.30;645.97;;;14.70;58.30;;;;;;5033299;28;20300;-70
2022/05/28 12:19:15;;;;;;;1395.57;738.23;;;14.60;60.00;;;;;;5018610;28;20293;-70
2022/05/28 12:21:45;;;;;;;1337.07;678.83;;;14.50;59.80;;;;;;5009348;28;20323;-70
2022/05/28 12:24:15;;;;;;;1390.30;694.40;;;14.60;59.60;;;;;;5026309;28;20287;-70
2022/05/28 12:29:38;;;;;;;1414.97;807.57;;;15.40;55.10;;;;;;5023529;28;20280;-70
2022/05/28 12:32:19;;;;;;;1584.93;857.23;;;15.80;53.00;;;;;;5024197;28;20307;-70